Time;durP1;ratioP1;P1;durP2;ratioP2;P2;SDS_P1;SDS_P2;PMS_P1;PMS_P2;Temp;Humidity;BMP_temperature;BMP_pressure;BME280_temperature;BME280_humidity;BME280_pressure;Samples;Min_cycle;Max_cycle;Signal;HPM_P1;HPM_P2
2023/07/19 00:01:55;;;;;;;7.47;4.97;;;;;;;17.81;75.17;100616.13;4997990;28;20081;-78
2023/07/19 00:04:23;;;;;;;8.90;4.80;;;;;;;17.84;75.16;100615.72;4999241;28;20480;-78
2023/07/19 00:06:50;;;;;;;8.18;5.60;;;;;;;17.81;75.06;100616.13;4995717;28;20064;-77
2023/07/19 00:09:17;;;;;;;8.00;4.53;;;;;;;17.77;74.97;100613.06;4995633;28;20584;-78
2023/07/19 00:11:43;;;;;;;9.20;4.75;;;;;;;17.76;75.19;100621.22;4996200;28;20089;-78
2023/07/19 00:14:10;;;;;;;8.25;4.60;;;;;;;17.74;75.47;100621.41;4995623;28;20056;-78
2023/07/19 00:16:36;;;;;;;6.05;4.32;;;;;;;17.71;75.79;100618.34;4997274;28;20480;-78
2023/07/19 00:19:03;;;;;;;10.10;4.60;;;;;;;17.68;75.79;100608.97;4997053;28;20089;-78
2023/07/19 00:21:31;;;;;;;11.73;5.45;;;;;;;17.67;75.85;100614.47;4996201;28;20133;-77
2023/07/19 00:23:57;;;;;;;7.82;4.80;;;;;;;17.65;75.68;100617.31;4995941;28;20085;-78
2023/07/19 00:26:24;;;;;;;9.27;4.47;;;;;;;17.70;76.08;100619.38;4996839;28;20050;-77
2023/07/19 00:28:51;;;;;;;7.05;4.55;;;;;;;17.66;76.12;100623.44;4998120;28;20069;-77
2023/07/19 00:31:17;;;;;;;9.10;4.13;;;;;;;17.55;76.50;100617.69;4995476;28;20050;-77
2023/07/19 00:33:44;;;;;;;8.05;4.50;;;;;;;17.58;76.63;100624.41;4995014;28;20132;-79
2023/07/19 00:36:10;;;;;;;7.90;4.72;;;;;;;17.49;76.77;100620.31;4998559;28;20086;-79
2023/07/19 00:38:38;;;;;;;7.85;5.00;;;;;;;17.43;76.80;100616.69;5006196;28;20081;-78
2023/07/19 00:41:05;;;;;;;8.75;4.70;;;;;;;17.44;77.37;100617.50;5007357;28;20105;-78
2023/07/19 00:43:32;;;;;;;8.45;4.75;;;;;;;17.42;77.23;100620.34;5000029;28;20077;-78
2023/07/19 00:45:59;;;;;;;8.23;5.10;;;;;;;17.38;77.68;100616.47;5004521;28;20065;-79
2023/07/19 00:48:26;;;;;;;8.65;4.78;;;;;;;17.41;77.78;100612.59;5000689;28;20133;-78
2023/07/19 00:50:55;;;;;;;6.78;4.80;;;;;;;17.31;77.63;100623.56;4997703;28;20129;-78
2023/07/19 00:53:23;;;;;;;8.13;5.03;;;;;;;17.30;78.18;100624.56;4997547;28;20189;-78
2023/07/19 00:55:52;;;;;;;6.32;4.80;;;;;;;17.36;78.25;100622.97;4997526;28;20137;-76
2023/07/19 00:58:19;;;;;;;7.00;4.80;;;;;;;17.23;78.46;100606.03;5005658;28;20110;-80
2023/07/19 01:00:46;;;;;;;7.35;4.47;;;;;;;17.17;78.51;100614.78;4998759;28;20073;-79
2023/07/19 01:03:12;;;;;;;8.02;4.50;;;;;;;17.06;79.01;100611.88;5001467;28;20058;-80
2023/07/19 01:05:39;;;;;;;7.85;4.85;;;;;;;17.01;78.98;100606.41;4998602;28;20133;-80
2023/07/19 01:08:06;;;;;;;8.32;4.80;;;;;;;16.87;78.76;100601.06;4994159;28;20121;-77
2023/07/19 01:10:33;;;;;;;9.23;4.47;;;;;;;16.59;79.15;100589.72;4991669;28;20126;-79
2023/07/19 01:13:05;;;;;;;9.85;5.35;;;;;;;16.35;79.62;100582.28;4995995;28;20112;-79
2023/07/19 01:15:32;;;;;;;7.70;4.45;;;;;;;16.36;79.96;100578.66;5001746;28;20418;-79
2023/07/19 01:17:58;;;;;;;8.73;4.22;;;;;;;16.48;79.38;100582.38;5001473;28;20110;-79
2023/07/19 01:20:25;;;;;;;7.18;4.63;;;;;;;16.49;78.87;100590.09;4997071;28;20046;-77
2023/07/19 01:22:55;;;;;;;6.95;4.63;;;;;;;16.50;78.83;100580.34;4993810;28;20128;-80
2023/07/19 01:25:21;;;;;;;6.57;4.30;;;;;;;16.57;78.75;100574.06;4999826;28;20133;-77
2023/07/19 01:27:49;;;;;;;11.20;4.90;;;;;;;16.54;78.19;100581.59;5003076;28;20050;-76
2023/07/19 01:30:16;;;;;;;7.07;4.50;;;;;;;16.55;78.45;100575.25;5005141;28;20049;-80
2023/07/19 01:32:43;;;;;;;7.70;5.13;;;;;;;16.53;78.28;100569.41;5000994;28;20090;-78
2023/07/19 01:35:10;;;;;;;8.43;4.55;;;;;;;16.45;78.34;100562.44;4998823;28;20438;-80
2023/07/19 01:37:36;;;;;;;9.23;4.63;;;;;;;16.48;78.41;100566.53;5003192;28;20082;-79
2023/07/19 01:40:05;;;;;;;6.15;4.20;;;;;;;16.49;78.37;100566.31;4993766;28;20134;-76
2023/07/19 01:42:32;;;;;;;9.68;4.72;;;;;;;16.47;78.52;100573.63;4999024;28;20136;-79
2023/07/19 01:45:01;;;;;;;11.63;5.07;;;;;;;16.46;78.46;100564.06;5001585;28;20058;-79
2023/07/19 01:47:27;;;;;;;7.40;4.50;;;;;;;16.43;79.03;100563.66;5004313;28;20034;-80
2023/07/19 01:49:54;;;;;;;8.38;4.60;;;;;;;16.43;79.06;100561.00;5007330;28;20101;-78
2023/07/19 01:52:21;;;;;;;8.93;5.35;;;;;;;16.38;79.37;100558.13;5000298;28;20256;-77
2023/07/19 01:54:47;;;;;;;6.53;5.10;;;;;;;16.38;79.73;100568.69;5008010;28;20122;-79
2023/07/19 01:57:15;;;;;;;8.60;4.72;;;;;;;16.34;79.96;100565.63;5003022;28;20055;-80
2023/07/19 01:59:42;;;;;;;5.95;4.78;;;;;;;16.32;80.13;100551.00;4995688;28;20114;-82
2023/07/19 02:02:09;;;;;;;10.20;5.20;;;;;;;16.30;80.46;100558.28;4992550;28;20502;-77
2023/07/19 02:04:35;;;;;;;7.32;5.35;;;;;;;16.25;80.77;100551.78;4995376;28;20133;-76
2023/07/19 02:07:02;;;;;;;10.07;5.38;;;;;;;16.22;81.11;100546.06;4996956;28;20074;-79
2023/07/19 02:09:28;;;;;;;12.13;5.43;;;;;;;16.19;81.37;100557.81;4996983;28;20043;-80
2023/07/19 02:11:55;;;;;;;8.02;5.18;;;;;;;16.17;81.48;100554.56;4996998;28;20057;-78
2023/07/19 02:14:23;;;;;;;9.50;5.25;;;;;;;16.17;81.67;100553.75;4996892;28;20133;-77
2023/07/19 02:16:50;;;;;;;7.45;5.40;;;;;;;16.15;81.71;100553.13;4998138;28;20133;-80
2023/07/19 02:19:16;;;;;;;13.50;5.15;;;;;;;16.17;81.72;100559.03;5004740;28;20078;-79
2023/07/19 02:21:43;;;;;;;10.60;6.45;;;;;;;16.18;81.60;100560.66;4993524;28;20078;-79
2023/07/19 02:24:09;;;;;;;12.95;5.80;;;;;;;16.15;82.00;100564.50;4992650;28;20141;-78
2023/07/19 02:26:36;;;;;;;10.30;5.28;;;;;;;16.15;81.84;100550.47;4993928;28;20097;-79
2023/07/19 02:29:03;;;;;;;12.75;5.72;;;;;;;16.11;81.66;100557.97;4997104;28;20105;-79
2023/07/19 02:31:31;;;;;;;11.73;5.55;;;;;;;16.14;82.05;100546.22;4997024;28;20050;-78
2023/07/19 02:33:58;;;;;;;14.00;5.45;;;;;;;16.09;82.16;100557.34;4996989;28;20054;-79
2023/07/19 02:36:24;;;;;;;8.05;5.45;;;;;;;16.07;82.41;100553.31;5002945;28;20540;-79
2023/07/19 02:38:51;;;;;;;12.93;5.72;;;;;;;16.09;82.28;100548.63;5005979;28;20062;-77
2023/07/19 02:41:18;;;;;;;8.30;5.30;;;;;;;16.08;82.66;100542.53;4994647;28;20458;-78
2023/07/19 02:43:45;;;;;;;9.25;5.18;;;;;;;16.14;82.68;100544.38;4988578;28;20137;-78
2023/07/19 02:46:11;;;;;;;11.35;5.80;;;;;;;16.26;82.75;100553.41;5003325;28;20140;-78
2023/07/19 02:48:39;;;;;;;13.30;5.95;;;;;;;16.30;82.75;100551.19;4996433;28;20089;-81
2023/07/19 02:51:06;;;;;;;9.55;5.03;;;;;;;16.33;82.63;100555.25;4997359;28;20070;-79
2023/07/19 02:53:32;;;;;;;11.25;5.60;;;;;;;16.34;82.34;100552.44;5009987;28;20137;-77
2023/07/19 02:55:59;;;;;;;9.52;5.88;;;;;;;16.34;82.22;100549.78;4993028;28;20490;-80
2023/07/19 02:58:27;;;;;;;7.60;4.95;;;;;;;16.39;81.65;100541.28;5002261;28;20100;-79
2023/07/19 03:00:54;;;;;;;11.32;5.70;;;;;;;16.51;81.46;100550.28;4998306;28;20125;-79
2023/07/19 03:03:21;;;;;;;11.85;5.38;;;;;;;16.59;81.15;100553.53;4997287;28;20069;-79
2023/07/19 03:05:49;;;;;;;10.73;5.43;;;;;;;16.70;81.07;100567.25;4997263;28;20055;-79
2023/07/19 03:08:16;;;;;;;9.77;5.60;;;;;;;16.66;80.86;100558.88;5006648;28;20049;-80
2023/07/19 03:10:42;;;;;;;9.75;5.38;;;;;;;16.64;80.69;100555.63;5014059;28;20042;-80
2023/07/19 03:13:09;;;;;;;10.07;5.97;;;;;;;16.54;80.58;100555.19;5001564;28;20081;-79
2023/07/19 03:15:36;;;;;;;11.63;5.82;;;;;;;16.49;80.59;100550.47;4997565;28;20050;-80
2023/07/19 03:18:03;;;;;;;11.80;5.60;;;;;;;16.50;80.82;100561.84;5000342;28;20120;-79
2023/07/19 03:20:30;;;;;;;8.98;5.30;;;;;;;16.55;80.97;100562.06;4999584;28;20471;-80
2023/07/19 03:22:58;;;;;;;16.83;5.97;;;;;;;16.61;81.09;100571.84;4994920;28;20081;-79
2023/07/19 03:25:25;;;;;;;7.88;5.28;;;;;;;16.63;81.60;100567.19;5003571;28;20042;-79
2023/07/19 03:27:55;;;;;;;11.77;5.55;;;;;;;16.55;80.87;100556.78;5005059;28;20050;-79
2023/07/19 03:30:22;;;;;;;8.40;5.60;;;;;;;16.47;81.01;100554.31;5005607;28;20110;-81
2023/07/19 03:32:49;;;;;;;12.05;5.30;;;;;;;16.39;81.47;100572.97;5005418;28;20050;-79
2023/07/19 03:35:16;;;;;;;12.32;5.95;;;;;;;16.48;82.04;100566.53;5001589;28;20129;-80
2023/07/19 03:37:44;;;;;;;12.38;5.80;;;;;;;16.48;81.62;100566.53;5003822;28;20118;-79
2023/07/19 03:40:13;;;;;;;7.90;5.35;;;;;;;16.60;81.88;100576.31;5003379;28;20054;-80
2023/07/19 03:42:40;;;;;;;10.27;5.57;;;;;;;16.49;81.12;100568.16;5004234;28;20109;-80
2023/07/19 03:45:08;;;;;;;9.88;6.00;;;;;;;16.55;81.15;100570.78;5013715;28;20110;-79
2023/07/19 03:47:35;;;;;;;11.75;5.95;;;;;;;16.66;81.24;100574.75;5004712;28;20074;-80
2023/07/19 03:50:02;;;;;;;9.10;5.75;;;;;;;16.73;81.10;100582.69;5012253;28;20088;-80
2023/07/19 03:52:28;;;;;;;12.40;5.80;;;;;;;16.79;81.25;100595.13;5001993;28;20089;-79
2023/07/19 03:54:56;;;;;;;8.55;5.05;;;;;;;16.85;80.92;100602.28;5002784;28;20572;-80
2023/07/19 03:57:24;;;;;;;11.18;5.57;;;;;;;16.87;80.68;100587.84;5003086;28;20047;-78
2023/07/19 03:59:51;;;;;;;9.43;5.57;;;;;;;16.83;81.07;100607.75;5001970;28;20046;-78
2023/07/19 04:02:19;;;;;;;10.80;5.10;;;;;;;16.73;81.55;100602.00;5002773;28;20108;-80
2023/07/19 04:04:46;;;;;;;12.05;6.47;;;;;;;16.70;81.70;100599.75;5004192;28;20046;-79
2023/07/19 04:07:12;;;;;;;9.60;5.32;;;;;;;16.60;81.79;100591.34;5007669;28;20077;-79
2023/07/19 04:09:39;;;;;;;10.40;5.30;;;;;;;16.57;81.80;100594.38;5008388;28;20089;-80
2023/07/19 04:12:07;;;;;;;8.43;5.32;;;;;;;16.53;81.73;100590.53;5008202;28;20069;-80
2023/07/19 04:14:35;;;;;;;15.15;5.28;;;;;;;16.54;82.03;100597.44;5011296;28;20078;-79
2023/07/19 04:17:01;;;;;;;8.50;4.88;;;;;;;16.51;82.31;100597.81;5003590;28;20085;-79
2023/07/19 04:19:28;;;;;;;6.88;5.15;;;;;;;16.57;82.70;100615.50;5002909;28;20050;-79
2023/07/19 04:21:54;;;;;;;10.20;5.43;;;;;;;16.58;82.84;100615.31;5001684;28;20471;-80
2023/07/19 04:24:21;;;;;;;12.43;5.30;;;;;;;16.62;83.03;100613.09;5004038;28;20146;-80
2023/07/19 04:26:48;;;;;;;9.93;5.95;;;;;;;16.67;82.57;100607.25;5004141;28;20054;-80
2023/07/19 04:29:14;;;;;;;10.32;6.32;;;;;;;16.72;82.69;100610.13;5003933;28;20057;-81
2023/07/19 04:31:42;;;;;;;13.15;6.45;;;;;;;16.76;82.42;100612.19;5003216;28;20088;-81
2023/07/19 04:34:10;;;;;;;9.73;5.40;;;;;;;16.88;81.91;100600.06;5005158;28;20078;-81
2023/07/19 04:36:37;;;;;;;12.18;5.38;;;;;;;17.08;81.63;100596.63;5003635;28;20110;-79
2023/07/19 04:39:04;;;;;;;13.30;6.20;;;;;;;17.08;81.23;100596.63;4999362;28;20046;-80
2023/07/19 04:41:30;;;;;;;11.90;6.07;;;;;;;17.16;81.48;100602.56;4996613;28;20050;-79
2023/07/19 04:43:57;;;;;;;14.00;5.93;;;;;;;17.25;80.82;100597.91;4997005;28;20061;-81
2023/07/19 04:46:24;;;;;;;14.63;6.28;;;;;;;17.23;80.68;100592.00;4996602;28;20514;-79
2023/07/19 04:48:52;;;;;;;11.43;5.38;;;;;;;17.30;80.22;100581.44;4996656;28;20129;-76
2023/07/19 04:51:18;;;;;;;11.32;6.03;;;;;;;17.40;80.81;100598.56;4997456;28;20106;-81
2023/07/19 04:53:45;;;;;;;14.98;5.80;;;;;;;17.47;80.60;100598.56;5007756;28;20050;-80
2023/07/19 04:56:11;;;;;;;12.60;5.20;;;;;;;17.52;80.14;100596.91;5000440;28;20081;-82
2023/07/19 04:58:38;;;;;;;9.45;5.85;;;;;;;17.55;80.27;100595.69;5000228;28;20133;-80
2023/07/19 05:01:06;;;;;;;14.05;6.53;;;;;;;17.57;80.36;100593.66;4997756;28;20072;-78
2023/07/19 05:03:33;;;;;;;12.18;6.00;;;;;;;17.56;80.43;100599.97;4997617;28;20052;-78
2023/07/19 05:06:01;;;;;;;11.30;5.75;;;;;;;17.70;80.40;100603.50;4998609;28;20064;-81
2023/07/19 05:08:28;;;;;;;14.88;5.93;;;;;;;17.82;80.00;100601.88;4996371;28;20054;-79
2023/07/19 05:10:54;;;;;;;14.75;5.65;;;;;;;17.99;78.92;100599.59;5005864;28;20081;-81
2023/07/19 05:13:21;;;;;;;9.95;5.22;;;;;;;18.08;77.94;100596.53;4997832;28;20180;-79
2023/07/19 05:15:48;;;;;;;12.82;5.68;;;;;;;18.21;77.03;100604.47;4996905;28;20073;-81
2023/07/19 05:18:14;;;;;;;20.27;5.75;;;;;;;18.16;77.09;100604.28;4997076;28;20134;-80
2023/07/19 05:20:41;;;;;;;11.88;6.22;;;;;;;18.17;77.58;100599.78;5003316;28;20054;-78
2023/07/19 05:23:10;;;;;;;11.45;5.28;;;;;;;18.14;77.67;100595.72;4996362;28;20042;-82
2023/07/19 05:25:36;;;;;;;16.00;6.00;;;;;;;18.19;77.70;100605.69;4996018;28;20093;-79
2023/07/19 05:28:03;;;;;;;12.52;5.70;;;;;;;18.23;76.81;100605.09;4997320;28;20561;-79
2023/07/19 05:30:30;;;;;;;12.70;6.57;;;;;;;18.19;76.84;100613.66;4997434;28;20101;-77
2023/07/19 05:32:56;;;;;;;12.60;5.75;;;;;;;18.21;76.84;100619.56;5005638;28;20113;-80
2023/07/19 05:35:23;;;;;;;9.70;5.43;;;;;;;18.20;77.10;100621.38;4994740;28;20429;-77
2023/07/19 05:37:49;;;;;;;10.23;6.05;;;;;;;18.28;76.88;100611.59;4992580;28;20085;-81
2023/07/19 05:40:18;;;;;;;16.02;5.90;;;;;;;18.38;76.95;100617.28;5005405;28;20050;-79
2023/07/19 05:42:44;;;;;;;10.43;5.72;;;;;;;18.37;76.83;100620.97;5007391;28;20050;-80
2023/07/19 05:45:11;;;;;;;10.13;5.50;;;;;;;18.44;77.15;100627.84;5008741;28;20070;-80
2023/07/19 05:47:38;;;;;;;14.15;5.95;;;;;;;18.45;77.23;100620.72;5001617;28;20246;-80
2023/07/19 05:50:05;;;;;;;10.70;5.50;;;;;;;18.53;77.55;100629.25;4999734;28;20113;-80
2023/07/19 05:52:32;;;;;;;9.38;5.70;;;;;;;18.54;77.59;100624.78;5000174;28;20058;-80
2023/07/19 05:54:58;;;;;;;13.27;5.93;;;;;;;18.70;77.66;100616.41;4999549;28;20129;-79
2023/07/19 05:57:26;;;;;;;12.02;6.03;;;;;;;18.93;76.94;100615.06;4999165;28;20133;-79
2023/07/19 05:59:54;;;;;;;12.57;5.95;;;;;;;19.03;76.21;100615.44;4999322;28;20054;-80
2023/07/19 06:02:21;;;;;;;10.82;6.00;;;;;;;19.07;76.24;100606.03;5007513;28;20046;-80
2023/07/19 06:04:47;;;;;;;11.20;6.28;;;;;;;19.08;76.67;100605.81;5003706;28;20065;-80
2023/07/19 06:07:15;;;;;;;11.30;5.97;;;;;;;19.19;77.14;100618.41;5003953;28;20054;-80
2023/07/19 06:09:41;;;;;;;9.45;5.82;;;;;;;19.28;77.26;100618.16;5001730;28;20118;-79
2023/07/19 06:12:09;;;;;;;10.95;5.85;;;;;;;19.44;77.03;100620.28;5000311;28;20129;-79
2023/07/19 06:14:37;;;;;;;9.48;5.50;;;;;;;19.40;77.44;100627.06;5003865;28;20110;-80
2023/07/19 06:17:07;;;;;;;12.05;6.03;;;;;;;19.38;77.10;100626.44;5001944;28;20140;-79
2023/07/19 06:19:33;;;;;;;9.00;6.07;;;;;;;19.32;78.02;100625.50;5009099;28;20117;-80
2023/07/19 06:22:00;;;;;;;11.40;6.18;;;;;;;19.41;78.44;100623.38;5005568;28;20129;-78
2023/07/19 06:24:26;;;;;;;13.60;6.65;;;;;;;19.27;78.35;100616.53;5008435;28;20053;-80
2023/07/19 06:26:53;;;;;;;13.07;6.45;;;;;;;19.38;78.93;100621.97;5002547;28;20118;-78
2023/07/19 06:29:20;;;;;;;13.07;6.20;;;;;;;19.51;78.31;100624.56;5001327;28;20113;-79
2023/07/19 06:31:48;;;;;;;8.88;5.68;;;;;;;19.60;78.58;100619.00;5007607;28;20042;-80
2023/07/19 06:34:18;;;;;;;10.23;5.78;;;;;;;19.76;77.80;100615.81;5014171;28;20089;-80
2023/07/19 06:36:44;;;;;;;10.85;5.82;;;;;;;19.84;77.05;100618.22;5006935;28;20061;-80
2023/07/19 06:39:11;;;;;;;11.95;6.20;;;;;;;19.82;76.07;100607.81;5006766;28;20046;-80
2023/07/19 06:41:38;;;;;;;9.27;6.00;;;;;;;19.91;76.16;100624.25;5007017;28;20053;-79
2023/07/19 06:44:04;;;;;;;13.50;6.13;;;;;;;20.04;75.95;100616.19;5006977;28;20092;-80
2023/07/19 06:46:31;;;;;;;12.60;5.57;;;;;;;19.99;75.99;100624.00;5006039;28;20042;-79
2023/07/19 06:48:59;;;;;;;9.40;5.10;;;;;;;19.83;75.71;100622.72;4995323;28;20071;-75
2023/07/19 06:51:26;;;;;;;12.93;6.03;;;;;;;20.00;75.47;100615.00;4993901;28;20046;-76
2023/07/19 06:53:52;;;;;;;9.55;6.25;;;;;;;20.05;75.57;100620.47;4994017;28;20621;-75
2023/07/19 06:56:19;;;;;;;15.80;6.30;;;;;;;20.15;75.60;100615.47;4993862;28;20096;-76
2023/07/19 07:01:18;;;;;;;15.55;6.53;;;;;;;20.47;71.22;100607.41;4993164;28;20378;-80
2023/07/19 07:03:45;;;;;;;10.93;5.97;;;;;;;20.73;70.58;100604.44;5014638;28;20081;-80
2023/07/19 07:06:13;;;;;;;12.10;6.35;;;;;;;20.99;69.78;100616.59;5004866;28;20053;-79
2023/07/19 07:08:40;;;;;;;14.32;7.38;;;;;;;20.74;69.57;100613.25;5000904;28;20110;-80
2023/07/19 07:11:06;;;;;;;19.20;7.47;;;;;;;20.61;70.04;100616.84;5000739;28;20122;-79
2023/07/19 07:13:33;;;;;;;13.13;6.50;;;;;;;20.78;69.66;100615.22;5000822;28;20140;-80
2023/07/19 07:16:00;;;;;;;14.65;7.30;;;;;;;20.91;69.38;100618.75;4999446;28;20104;-81
2023/07/19 07:18:26;;;;;;;12.35;6.47;;;;;;;21.04;69.22;100607.94;5000867;28;20046;-79
2023/07/19 07:20:53;;;;;;;19.75;6.80;;;;;;;21.23;69.09;100616.72;5000567;28;20133;-80
2023/07/19 07:23:21;;;;;;;8.55;6.18;;;;;;;21.64;68.04;100610.59;4998569;28;20060;-80
2023/07/19 07:25:52;;;;;;;16.88;6.82;;;;;;;22.41;66.97;100608.63;4998627;28;20046;-79
2023/07/19 07:28:19;;;;;;;10.90;6.47;;;;;;;22.52;65.84;100605.94;4995345;28;20271;-80
2023/07/19 07:30:45;;;;;;;14.70;6.65;;;;;;;22.34;65.72;100597.28;4997948;28;20046;-79
2023/07/19 07:33:12;;;;;;;11.30;6.93;;;;;;;22.34;66.87;100607.94;4998657;28;20050;-80
2023/07/19 07:35:39;;;;;;;18.80;7.15;;;;;;;22.32;65.17;100594.84;4999890;28;20054;-79
2023/07/19 07:38:05;;;;;;;18.73;6.68;;;;;;;22.43;64.82;100603.88;4998783;28;20045;-80
2023/07/19 07:40:33;;;;;;;12.63;6.50;;;;;;;22.61;64.44;100613.59;4999467;28;20146;-81
2023/07/19 07:43:00;;;;;;;9.57;6.00;;;;;;;22.83;65.32;100606.59;4999372;28;20048;-80
2023/07/19 07:45:27;;;;;;;11.65;6.18;;;;;;;23.06;63.71;100605.69;4999316;28;20557;-80
2023/07/19 07:47:53;;;;;;;14.18;6.78;;;;;;;23.07;63.91;100601.97;4999079;28;20141;-80
2023/07/19 07:50:22;;;;;;;15.25;7.07;;;;;;;23.06;63.72;100595.84;4998861;28;20121;-80
2023/07/19 07:52:48;;;;;;;15.10;6.40;;;;;;;22.67;64.82;100602.78;4998135;28;20038;-80
2023/07/19 07:55:15;;;;;;;10.10;6.10;;;;;;;22.67;65.41;100616.13;4995952;28;20077;-80
2023/07/19 07:57:43;;;;;;;15.05;6.43;;;;;;;22.52;65.60;100611.28;4999603;28;20081;-79
2023/07/19 08:00:11;;;;;;;13.90;7.43;;;;;;;22.40;66.80;100617.69;4998855;28;20097;-80
2023/07/19 08:02:38;;;;;;;10.70;6.15;;;;;;;22.26;66.28;100617.09;4998925;28;20508;-80
2023/07/19 08:05:05;;;;;;;9.68;6.55;;;;;;;22.30;66.85;100606.78;5001415;28;20109;-79
2023/07/19 08:07:32;;;;;;;11.75;6.32;;;;;;;22.39;67.25;100610.72;5002660;28;20056;-80
2023/07/19 08:09:59;;;;;;;9.23;6.05;;;;;;;22.58;66.34;100598.06;5001162;28;20074;-81
2023/07/19 08:12:25;;;;;;;14.85;6.40;;;;;;;22.90;65.33;100599.25;5002316;28;20482;-80
2023/07/19 08:14:53;;;;;;;10.65;6.40;;;;;;;23.04;65.22;100599.78;5001656;28;20077;-81
2023/07/19 08:17:20;;;;;;;9.98;5.65;;;;;;;23.27;64.86;100601.53;5002201;28;20088;-79
2023/07/19 08:19:46;;;;;;;10.20;5.38;;;;;;;23.42;63.37;100591.94;5001945;28;20081;-81
2023/07/19 08:22:25;;;;;;;11.75;5.47;;;;;;;23.22;63.18;100583.56;5000768;28;20061;-81
2023/07/19 08:24:51;;;;;;;7.85;5.10;;;;;;;23.32;63.49;100610.44;4999810;28;20110;-80
2023/07/19 08:27:18;;;;;;;13.52;5.00;;;;;;;22.82;63.52;100592.44;5000114;28;20050;-80
2023/07/19 08:29:45;;;;;;;9.88;5.28;;;;;;;22.28;63.93;100599.03;5000762;28;20482;-81
2023/07/19 08:32:13;;;;;;;12.95;5.22;;;;;;;22.18;63.70;100591.63;4999540;28;20119;-81
2023/07/19 08:34:43;;;;;;;9.85;4.60;;;;;;;22.11;63.69;100590.94;4996938;28;20056;-81
2023/07/19 08:37:10;;;;;;;14.85;5.43;;;;;;;21.97;64.60;100597.50;4997357;28;20061;-81
2023/07/19 08:39:36;;;;;;;14.98;5.65;;;;;;;22.24;65.19;100597.06;4995263;28;20070;-79
2023/07/19 08:42:04;;;;;;;12.30;5.07;;;;;;;22.43;64.58;100599.34;4995488;28;20100;-80
2023/07/19 08:44:31;;;;;;;13.50;5.97;;;;;;;22.62;65.38;100608.03;4994173;28;20470;-78
2023/07/19 08:46:58;;;;;;;13.43;5.93;;;;;;;22.68;64.81;100593.75;4993901;28;20157;-79
2023/07/19 08:49:26;;;;;;;14.27;5.82;;;;;;;22.44;66.03;100613.50;4993348;28;20132;-79
2023/07/19 08:51:54;;;;;;;10.75;5.78;;;;;;;22.13;66.63;100602.19;4993721;28;20080;-79
2023/07/19 08:54:20;;;;;;;10.25;5.53;;;;;;;22.35;65.68;100594.38;4994154;28;20133;-80
2023/07/19 08:56:47;;;;;;;9.43;5.22;;;;;;;22.54;64.78;100592.38;4999665;28;20052;-80
2023/07/19 08:59:13;;;;;;;13.68;5.40;;;;;;;22.59;64.70;100597.81;4994885;28;20050;-78
2023/07/19 09:01:40;;;;;;;9.73;5.22;;;;;;;22.87;64.86;100609.59;4992081;28;20294;-79
2023/07/19 09:04:09;;;;;;;11.05;5.30;;;;;;;22.70;64.65;100596.97;4992329;28;20046;-79
2023/07/19 09:06:37;;;;;;;12.07;5.40;;;;;;;22.42;65.32;100604.94;4994490;28;20058;-78
2023/07/19 09:09:04;;;;;;;10.48;5.38;;;;;;;22.88;65.47;100605.88;4991755;28;20137;-78
2023/07/19 09:11:30;;;;;;;12.00;5.72;;;;;;;22.90;64.87;100601.13;4993200;28;20623;-78
2023/07/19 09:13:59;;;;;;;9.73;5.43;;;;;;;22.90;65.16;100603.78;4988774;28;20054;-80
2023/07/19 09:16:27;;;;;;;11.15;5.10;;;;;;;22.73;65.84;100609.00;4989569;28;20120;-79
2023/07/19 09:18:54;;;;;;;18.75;5.80;;;;;;;22.61;65.51;100603.72;4995801;28;20042;-77
2023/07/19 09:21:31;;;;;;;12.60;5.65;;;;;;;22.52;65.71;100605.13;5001130;28;20073;-80
2023/07/19 09:24:03;;;;;;;17.85;5.05;;;;;;;22.83;65.52;100601.25;5012042;28;20076;-81
2023/07/19 09:26:43;;;;;;;7.57;4.73;;;;;;;23.19;66.00;100600.03;5000064;28;20129;-80
2023/07/19 09:29:10;;;;;;;12.60;4.97;;;;;;;23.94;64.87;100597.06;5008940;28;20396;-80
2023/07/19 09:31:50;;;;;;;11.00;4.35;;;;;;;24.33;62.08;100581.03;4998485;28;20063;-80
2023/07/19 09:34:17;;;;;;;7.85;4.45;;;;;;;24.57;60.92;100592.31;4995395;28;20078;-80
2023/07/19 09:36:43;;;;;;;12.02;5.10;;;;;;;24.22;60.25;100581.91;5000274;28;20042;-80
2023/07/19 09:39:11;;;;;;;10.30;4.90;;;;;;;23.91;60.84;100592.19;5009422;28;20049;-81
2023/07/19 09:41:39;;;;;;;9.48;4.70;;;;;;;24.08;60.72;100579.63;4994419;28;20574;-80
2023/07/19 09:44:09;;;;;;;9.75;4.55;;;;;;;23.83;61.15;100584.59;5001532;28;20462;-79
2023/07/19 09:46:37;;;;;;;8.82;4.82;;;;;;;23.80;60.89;100583.22;5006096;28;20053;-80
2023/07/19 09:49:04;;;;;;;15.13;5.00;;;;;;;24.01;60.40;100581.66;5009313;28;20074;-81
2023/07/19 09:51:32;;;;;;;13.82;4.95;;;;;;;23.89;60.80;100588.97;5006061;28;20057;-79
2023/07/19 09:54:01;;;;;;;13.45;5.00;;;;;;;23.77;60.86;100585.56;5002534;28;20039;-80
2023/07/19 09:56:29;;;;;;;9.77;4.65;;;;;;;24.14;60.36;100575.94;4998774;28;20582;-80
2023/07/19 09:58:57;;;;;;;9.13;4.50;;;;;;;24.38;60.43;100573.88;4998491;28;20132;-81
2023/07/19 10:01:25;;;;;;;9.93;4.55;;;;;;;24.34;61.42;100591.47;5003482;28;20488;-81
2023/07/19 10:03:52;;;;;;;11.60;4.72;;;;;;;24.79;60.00;100587.75;5006017;28;20052;-81
2023/07/19 10:06:18;;;;;;;7.97;4.90;;;;;;;25.05;59.35;100588.84;5008767;28;20054;-82
2023/07/19 10:08:45;;;;;;;10.27;4.97;;;;;;;24.80;58.78;100579.47;5003656;28;20089;-81
2023/07/19 10:11:23;;;;;;;7.80;5.07;;;;;;;24.39;59.67;100577.38;5007180;28;20053;-82
2023/07/19 10:13:56;;;;;;;9.07;5.40;;;;;;;24.34;59.80;100579.97;5004598;28;20454;-81
2023/07/19 10:16:24;;;;;;;10.98;5.00;;;;;;;25.38;58.70;100599.34;5001293;28;20399;-83
2023/07/19 10:19:39;;;;;;;8.63;5.25;;;;;;;25.50;57.40;100558.19;5092336;23;20063;-81
2023/07/19 10:25:46;;;;;;;9.57;4.97;;;;;;;25.17;58.94;100584.13;4939008;28;20043;-82
2023/07/19 10:28:26;;;;;;;13.48;5.47;;;;;;;25.97;57.49;100560.94;4967654;28;20051;-83
2023/07/19 10:31:02;;;;;;;16.83;6.35;;;;;;;25.72;56.90;100556.22;4969264;28;20051;-82
2023/07/19 10:33:31;;;;;;;10.05;5.97;;;;;;;25.51;57.37;100575.88;4999061;23;20146;-80
2023/07/19 10:36:04;;;;;;;11.23;5.57;;;;;;;25.64;56.62;100568.22;4960673;28;20039;-80
2023/07/19 10:38:31;;;;;;;14.85;6.13;;;;;;;25.06;57.30;100571.72;4961448;28;20079;-80
2023/07/19 10:41:00;;;;;;;14.40;6.22;;;;;;;25.63;57.03;100569.25;4963526;28;20067;-80
2023/07/19 10:43:28;;;;;;;15.85;7.25;;;;;;;26.13;56.61;100570.69;4961866;28;20067;-81
2023/07/19 10:45:59;;;;;;;15.68;6.45;;;;;;;26.05;56.21;100563.94;4960202;28;20527;-80
2023/07/19 10:48:27;;;;;;;13.13;5.63;;;;;;;25.78;56.33;100571.28;4957847;28;20141;-79
2023/07/19 10:50:56;;;;;;;16.08;6.55;;;;;;;25.76;56.41;100571.53;4958953;28;20508;-77
2023/07/19 10:53:23;;;;;;;14.93;6.38;;;;;;;25.95;55.91;100577.28;4959938;28;20130;-80
2023/07/19 10:55:53;;;;;;;15.95;6.40;;;;;;;26.47;55.29;100565.75;4960288;28;20066;-79
2023/07/19 10:58:20;;;;;;;14.95;7.65;;;;;;;26.24;54.76;100560.81;4952951;29;20043;-79
2023/07/19 11:00:47;;;;;;;11.70;6.50;;;;;;;26.35;54.73;100557.94;4948983;28;20066;-80
2023/07/19 11:03:16;;;;;;;11.02;6.03;;;;;;;26.62;53.98;100536.28;4957182;28;20078;-78
2023/07/19 11:05:47;;;;;;;14.18;5.95;;;;;;;26.66;54.25;100548.13;4955079;28;20239;-79
2023/07/19 11:08:20;;;;;;;13.00;6.30;;;;;;;26.10;54.71;100550.53;4951784;28;20047;-79
2023/07/19 11:10:47;;;;;;;9.23;5.43;;;;;;;25.84;55.09;100546.13;4953974;28;20388;-79
2023/07/19 11:13:14;;;;;;;9.73;5.28;;;;;;;26.22;54.68;100542.28;4965200;28;20082;-79
2023/07/19 11:15:42;;;;;;;10.63;5.50;;;;;;;26.74;54.64;100544.13;4958659;28;20054;-79
2023/07/19 11:18:09;;;;;;;10.40;5.78;;;;;;;26.20;54.79;100538.25;4958750;28;20396;-78
2023/07/19 11:20:43;;;;;;;9.48;5.00;;;;;;;25.58;55.55;100538.94;4952093;28;20062;-79
2023/07/19 11:23:11;;;;;;;11.75;4.82;;;;;;;25.36;56.08;100533.69;4956331;28;20051;-80
2023/07/19 11:25:39;;;;;;;10.23;5.05;;;;;;;25.34;55.64;100528.59;4959411;28;20070;-79
2023/07/19 11:28:06;;;;;;;11.40;4.88;;;;;;;25.19;56.18;100517.75;4958954;28;20509;-80